首页
METAR-TAF:

METAR-TAF

机场 :

Watertown, 紐約州, 美国

纬度: 43-59-31N, 经度: 076-01-18W, 海拔: 99米

当前天气观测

该预报发布于33分钟前的11:56 UTC
静风
温度 12°C
湿度 100%
气压 1012 hPa
能見度: 16.1公里
阴天层高于6500英尺

METAR: KART 231156Z AUTO 00000KT 10SM OVC065 12/12 A2988 RMK AO2 SLP117 T01220117 10156 20089 53003

时间: 08:29 (12:29 UTC)

预报

该预报发布于1小时和9分钟前的11:20 UTC
预报有效从23日的 12点(UTC)到 24日的 12点(UTC)
风速节,风向
能見度: 10公里
天空无云
从 23日的 1700点(UTC)
风速12节,风向西
能見度: 10公里
少量云层高于7000英尺
从 24日的 0100点(UTC)
风速6节,风向西转西南
能見度: 10公里
少量云层高于25000英尺
从 24日的 0500点(UTC)
风速4节,风向南转西南
能見度: 10公里
少量云层高于25000英尺
从 24日的 0900点(UTC)
风速6节,风向
能見度: 10公里
多云层高于15000英尺

TAF: KART 231120Z 2312/2412 00000KT P6SM SKC FM231700 26012KT P6SM FEW070 FM240100 24006KT P6SM FEW250 FM240500 21004KT P6SM FEW250 FM240900 18006KT P6SM BKN150

超过4000个机场的气象观测和天气预报(METAR&TAF报告)。

可查询的气象台以黄色和红色小点在地图上表示。

将鼠标移到小点上方,可查看气象台名称。

然后点击查看天气观测和预报。

如需切换地图:点击带黑十字的绿色按钮放大地图;点击带横线的绿色按钮缩小地图;或者点击绿色箭头查看邻近地区的地图。


METAR-TAF: